Time;durP1;ratioP1;P1;durP2;ratioP2;P2;SDS_P1;SDS_P2;PMS_P1;PMS_P2;Temp;Humidity;BMP_temperature;BMP_pressure;BME280_temperature;BME280_humidity;BME280_pressure;Samples;Min_cycle;Max_cycle;Signal;HPM_P1;HPM_P2
2023/06/15 00:01:21;;;;;;;3.38;3.17;;;;;;;;;;5118217;28;20291;-61
2023/06/15 00:03:48;;;;;;;3.55;3.35;;;;;;;;;;5117867;28;20234;-61
2023/06/15 00:06:16;;;;;;;3.60;3.30;;;;;;;;;;5118189;28;20220;-61
2023/06/15 00:08:43;;;;;;;3.47;3.22;;;;;;;;;;5118276;28;20211;-62
2023/06/15 00:11:10;;;;;;;4.03;3.50;;;;;;;;;;5117881;28;20214;-61
2023/06/15 00:13:38;;;;;;;3.22;3.03;;;;;;;;;;5118043;28;20209;-61
2023/06/15 00:16:06;;;;;;;3.33;3.13;;;;;;;;;;5121983;28;20226;-61
2023/06/15 00:18:37;;;;;;;3.20;3.00;;;;;;;;;;5121884;28;20217;-61
2023/06/15 00:21:05;;;;;;;4.00;3.70;;;;;;;;;;5121340;28;20202;-61
2023/06/15 00:23:32;;;;;;;3.25;3.00;;;;;;;;;;5121832;28;20601;-61
2023/06/15 00:25:59;;;;;;;3.83;3.40;;;;;;;;;;5121932;28;20207;-61
2023/06/15 00:28:27;;;;;;;3.25;3.05;;;;;;;;;;5121757;28;20209;-61
2023/06/15 00:30:55;;;;;;;3.58;3.33;;;;;;;;;;5121919;28;20214;-61
2023/06/15 00:33:23;;;;;;;3.60;3.40;;;;;;;;;;5121996;28;20202;-61
2023/06/15 00:35:51;;;;;;;3.10;2.90;;;;;;;;;;5121589;28;20485;-61
2023/06/15 00:38:18;;;;;;;3.50;3.25;;;;;;;;;;5121612;28;20291;-61
2023/06/15 00:40:46;;;;;;;3.45;3.25;;;;;;;;;;5121614;28;20202;-61
2023/06/15 00:43:13;;;;;;;3.40;3.20;;;;;;;;;;5121709;28;20238;-62
2023/06/15 00:45:41;;;;;;;3.53;3.33;;;;;;;;;;5121263;28;20845;-61
2023/06/15 00:48:08;;;;;;;3.22;3.00;;;;;;;;;;5121735;28;20462;-61
2023/06/15 00:50:38;;;;;;;3.20;3.00;;;;;;;;;;5121527;28;20277;-62
2023/06/15 00:53:07;;;;;;;3.30;3.10;;;;;;;;;;5121045;28;20214;-61
2023/06/15 00:55:35;;;;;;;3.72;3.42;;;;;;;;;;5121147;28;20223;-61
2023/06/15 00:58:03;;;;;;;3.38;3.17;;;;;;;;;;5121250;28;20207;-61
2023/06/15 01:00:32;;;;;;;3.58;3.38;;;;;;;;;;5121026;28;20229;-61
2023/06/15 01:03:02;;;;;;;3.58;3.38;;;;;;;;;;5121194;28;20211;-61
2023/06/15 01:05:30;;;;;;;3.67;3.47;;;;;;;;;;5121159;28;20199;-61
2023/06/15 01:08:02;;;;;;;3.55;3.35;;;;;;;;;;5121021;28;20281;-61
2023/06/15 01:10:31;;;;;;;3.65;3.35;;;;;;;;;;5120077;28;20587;-61
2023/06/15 01:12:59;;;;;;;3.22;3.03;;;;;;;;;;5120835;28;20299;-61
2023/06/15 01:15:27;;;;;;;3.28;3.08;;;;;;;;;;5120775;28;20230;-61
2023/06/15 01:17:55;;;;;;;3.65;3.35;;;;;;;;;;5120564;28;20203;-61
2023/06/15 01:20:27;;;;;;;3.50;3.20;;;;;;;;;;5120625;28;20590;-61
2023/06/15 01:22:59;;;;;;;3.40;3.17;;;;;;;;;;5120841;28;20490;-61
2023/06/15 01:25:33;;;;;;;3.22;3.03;;;;;;;;;;5119937;28;20210;-61
2023/06/15 01:28:03;;;;;;;3.53;3.22;;;;;;;;;;5120441;28;20203;-61
2023/06/15 01:30:33;;;;;;;3.58;3.38;;;;;;;;;;5120387;28;20213;-61
2023/06/15 01:33:00;;;;;;;3.50;3.20;;;;;;;;;;5119965;28;20207;-61
2023/06/15 01:35:27;;;;;;;3.20;3.00;;;;;;;;;;5120155;28;20210;-61
2023/06/15 01:37:55;;;;;;;3.58;3.35;;;;;;;;;;5120562;28;20202;-61
2023/06/15 01:40:23;;;;;;;3.60;3.40;;;;;;;;;;5119582;28;20217;-61
2023/06/15 01:42:51;;;;;;;3.63;3.42;;;;;;;;;;5119938;28;20211;-61
2023/06/15 01:45:21;;;;;;;3.38;3.08;;;;;;;;;;5120174;28;20203;-61
2023/06/15 01:47:49;;;;;;;3.60;3.40;;;;;;;;;;5120299;28;20203;-61
2023/06/15 01:50:16;;;;;;;3.40;3.10;;;;;;;;;;5119961;28;20217;-61
2023/06/15 01:52:44;;;;;;;3.30;3.10;;;;;;;;;;5119992;28;20202;-61
2023/06/15 01:55:12;;;;;;;3.38;3.17;;;;;;;;;;5119965;28;20203;-61
2023/06/15 01:57:40;;;;;;;3.17;2.97;;;;;;;;;;5119766;28;20588;-61
2023/06/15 02:00:08;;;;;;;3.30;3.00;;;;;;;;;;5120063;28;20210;-61
2023/06/15 02:02:37;;;;;;;3.38;3.05;;;;;;;;;;5119825;28;20221;-61
2023/06/15 02:05:05;;;;;;;3.03;2.83;;;;;;;;;;5120275;28;20203;-61
2023/06/15 02:07:33;;;;;;;3.33;3.03;;;;;;;;;;5119881;28;20200;-61
2023/06/15 02:10:00;;;;;;;3.63;3.42;;;;;;;;;;5119806;28;20505;-61
2023/06/15 02:12:28;;;;;;;3.55;3.28;;;;;;;;;;5119984;28;20477;-61
2023/06/15 02:14:55;;;;;;;3.58;3.28;;;;;;;;;;5120041;28;20210;-61
2023/06/15 02:17:24;;;;;;;3.50;3.30;;;;;;;;;;5119674;28;20227;-61
2023/06/15 02:19:53;;;;;;;3.60;3.40;;;;;;;;;;5119670;28;20280;-61
2023/06/15 02:22:20;;;;;;;3.78;3.58;;;;;;;;;;5119856;28;20203;-61
2023/06/15 02:24:48;;;;;;;3.30;3.10;;;;;;;;;;5119402;28;20740;-61
2023/06/15 02:27:15;;;;;;;3.50;3.20;;;;;;;;;;5119583;28;20199;-61
2023/06/15 02:29:42;;;;;;;3.45;3.25;;;;;;;;;;5119684;28;20207;-61
2023/06/15 02:32:10;;;;;;;3.63;3.42;;;;;;;;;;5119236;28;20210;-61
2023/06/15 02:34:38;;;;;;;3.70;3.50;;;;;;;;;;5119566;28;20203;-61
2023/06/15 02:37:08;;;;;;;3.47;3.28;;;;;;;;;;5118922;28;20245;-61
2023/06/15 02:39:35;;;;;;;3.30;3.10;;;;;;;;;;5118919;28;20210;-61
2023/06/15 02:42:02;;;;;;;3.25;3.05;;;;;;;;;;5119573;28;20214;-61
2023/06/15 02:44:30;;;;;;;3.13;2.92;;;;;;;;;;5119007;28;20214;-61
2023/06/15 02:46:57;;;;;;;3.50;3.30;;;;;;;;;;5118628;28;20222;-61
2023/06/15 02:49:26;;;;;;;3.35;3.15;;;;;;;;;;5118670;28;20594;-61
2023/06/15 02:51:53;;;;;;;3.60;3.30;;;;;;;;;;5118127;28;20214;-61
2023/06/15 02:54:23;;;;;;;3.60;3.33;;;;;;;;;;5118798;28;20210;-61
2023/06/15 02:56:51;;;;;;;3.22;3.03;;;;;;;;;;5118609;28;20271;-61
2023/06/15 02:59:24;;;;;;;3.35;3.15;;;;;;;;;;5118669;28;20203;-61
2023/06/15 03:01:52;;;;;;;3.55;3.25;;;;;;;;;;5118659;28;20210;-61
2023/06/15 03:04:21;;;;;;;3.40;3.20;;;;;;;;;;5118106;28;20218;-61
2023/06/15 03:06:50;;;;;;;3.60;3.30;;;;;;;;;;5117714;28;20199;-61
2023/06/15 03:09:18;;;;;;;3.47;3.28;;;;;;;;;;5118684;28;20211;-61
2023/06/15 03:11:46;;;;;;;3.38;3.10;;;;;;;;;;5118559;28;20206;-61
2023/06/15 03:14:14;;;;;;;3.45;3.25;;;;;;;;;;5118567;28;20207;-61
2023/06/15 03:16:46;;;;;;;3.40;3.20;;;;;;;;;;5118378;28;20234;-61
2023/06/15 03:19:14;;;;;;;4.05;3.75;;;;;;;;;;5118308;28;20308;-61
2023/06/15 03:21:41;;;;;;;3.75;3.45;;;;;;;;;;5118047;28;20203;-61
2023/06/15 03:24:09;;;;;;;4.00;3.70;;;;;;;;;;5117435;28;20211;-61
2023/06/15 03:26:37;;;;;;;3.53;3.25;;;;;;;;;;5117705;28;20199;-61
2023/06/15 03:29:05;;;;;;;3.45;3.25;;;;;;;;;;5118417;28;20527;-61
2023/06/15 03:31:40;;;;;;;3.50;3.20;;;;;;;;;;5118180;28;20203;-61
2023/06/15 03:34:08;;;;;;;3.50;3.30;;;;;;;;;;5117846;28;20241;-61
2023/06/15 03:36:35;;;;;;;3.60;3.40;;;;;;;;;;5118119;28;20226;-61
2023/06/15 03:39:03;;;;;;;3.60;3.30;;;;;;;;;;5117690;28;20492;-61
2023/06/15 03:41:31;;;;;;;3.50;3.20;;;;;;;;;;5117537;28;20509;-61
2023/06/15 03:43:58;;;;;;;3.50;3.30;;;;;;;;;;5117984;28;20242;-61
2023/06/15 03:46:27;;;;;;;3.60;3.40;;;;;;;;;;5117763;28;20231;-61
2023/06/15 03:48:54;;;;;;;3.40;3.20;;;;;;;;;;5117315;28;20203;-61
2023/06/15 03:51:22;;;;;;;3.80;3.42;;;;;;;;;;5117651;28;20210;-61
2023/06/15 03:53:49;;;;;;;3.90;3.60;;;;;;;;;;5117739;28;20211;-61
2023/06/15 03:56:16;;;;;;;3.70;3.40;;;;;;;;;;5116562;28;20209;-61
2023/06/15 03:58:44;;;;;;;3.65;3.35;;;;;;;;;;5117572;28;20234;-61
2023/06/15 04:01:12;;;;;;;3.30;3.10;;;;;;;;;;5117444;28;20492;-61
2023/06/15 04:03:41;;;;;;;3.42;3.22;;;;;;;;;;5117711;28;20203;-61
2023/06/15 04:06:08;;;;;;;3.90;3.60;;;;;;;;;;5117829;28;20614;-61
2023/06/15 04:08:36;;;;;;;3.85;3.55;;;;;;;;;;5117442;28;20238;-61
2023/06/15 04:11:05;;;;;;;3.58;3.28;;;;;;;;;;5117535;28;20261;-61
2023/06/15 04:13:32;;;;;;;3.90;3.60;;;;;;;;;;5117433;28;20302;-61
2023/06/15 04:15:59;;;;;;;3.97;3.67;;;;;;;;;;5117522;28;20211;-61
2023/06/15 04:18:27;;;;;;;5.00;3.60;;;;;;;;;;5117643;28;20617;-61
2023/06/15 04:20:55;;;;;;;3.75;3.55;;;;;;;;;;5117347;28;20283;-61
2023/06/15 04:23:23;;;;;;;3.65;3.35;;;;;;;;;;5117331;28;20609;-61
2023/06/15 04:25:50;;;;;;;3.80;3.50;;;;;;;;;;5117103;28;20203;-61
2023/06/15 04:28:18;;;;;;;4.38;4.07;;;;;;;;;;5116896;28;20199;-61
2023/06/15 04:30:46;;;;;;;3.90;3.60;;;;;;;;;;5116820;28;20489;-61
2023/06/15 04:33:13;;;;;;;3.60;3.35;;;;;;;;;;5116857;28;20268;-61
2023/06/15 04:35:45;;;;;;;4.20;3.90;;;;;;;;;;5115759;28;20199;-61
2023/06/15 04:38:13;;;;;;;4.00;3.70;;;;;;;;;;5116539;28;20266;-62
2023/06/15 04:40:41;;;;;;;3.83;3.58;;;;;;;;;;5116572;28;20203;-61
2023/06/15 04:43:09;;;;;;;3.97;3.67;;;;;;;;;;5116557;28;20203;-61
2023/06/15 04:45:36;;;;;;;4.25;3.95;;;;;;;;;;5115089;28;20214;-61
2023/06/15 04:48:04;;;;;;;4.10;3.80;;;;;;;;;;5115553;28;20516;-61
2023/06/15 04:50:31;;;;;;;4.70;4.30;;;;;;;;;;5115870;28;20522;-61
2023/06/15 04:52:59;;;;;;;4.22;3.85;;;;;;;;;;5115803;28;20203;-62
2023/06/15 04:55:27;;;;;;;4.03;3.63;;;;;;;;;;5115748;28;20203;-61
2023/06/15 04:57:55;;;;;;;4.00;3.70;;;;;;;;;;5115242;28;20227;-61
2023/06/15 05:00:22;;;;;;;4.25;3.95;;;;;;;;;;5114379;28;20237;-61
2023/06/15 05:02:49;;;;;;;4.32;4.03;;;;;;;;;;5117647;28;20202;-61
2023/06/15 05:05:17;;;;;;;4.50;4.10;;;;;;;;;;5119235;28;20218;-61
2023/06/15 05:07:44;;;;;;;4.50;4.20;;;;;;;;;;5118042;28;20198;-61
2023/06/15 05:10:12;;;;;;;4.25;3.90;;;;;;;;;;5117952;28;20594;-61
2023/06/15 05:12:40;;;;;;;4.70;4.30;;;;;;;;;;5118059;28;20222;-61
2023/06/15 05:15:08;;;;;;;4.20;3.90;;;;;;;;;;5118247;28;20203;-61
2023/06/15 05:17:36;;;;;;;4.45;4.10;;;;;;;;;;5117484;28;20615;-64
2023/06/15 05:20:05;;;;;;;5.93;4.45;;;;;;;;;;5117568;28;20249;-61
2023/06/15 05:22:33;;;;;;;4.78;4.25;;;;;;;;;;5117164;28;20199;-61
2023/06/15 05:25:00;;;;;;;4.72;4.32;;;;;;;;;;5117476;28;20199;-61
2023/06/15 05:27:28;;;;;;;4.38;3.97;;;;;;;;;;5117905;28;20191;-61
2023/06/15 05:29:57;;;;;;;4.45;4.13;;;;;;;;;;5118561;28;20407;-61
2023/06/15 05:32:24;;;;;;;4.50;4.10;;;;;;;;;;5116634;28;20202;-60
2023/06/15 05:34:52;;;;;;;4.68;4.28;;;;;;;;;;5118020;28;20210;-61
2023/06/15 05:37:19;;;;;;;4.60;4.10;;;;;;;;;;5117304;28;20511;-61
2023/06/15 05:39:47;;;;;;;4.50;4.10;;;;;;;;;;5116990;28;20206;-61
2023/06/15 05:42:14;;;;;;;4.63;4.20;;;;;;;;;;5117366;28;20256;-61
2023/06/15 05:44:41;;;;;;;4.97;4.60;;;;;;;;;;5117660;28;20199;-61
2023/06/15 05:47:10;;;;;;;4.70;4.38;;;;;;;;;;5116513;28;20227;-61
2023/06/15 05:49:37;;;;;;;5.20;4.70;;;;;;;;;;5117448;28;20203;-61
2023/06/15 05:52:05;;;;;;;5.07;4.57;;;;;;;;;;5116378;28;20210;-61
2023/06/15 05:54:32;;;;;;;4.70;4.30;;;;;;;;;;5117186;28;20203;-61
2023/06/15 05:57:00;;;;;;;4.97;4.57;;;;;;;;;;5116421;28;20219;-61
2023/06/15 05:59:27;;;;;;;5.25;4.80;;;;;;;;;;5115901;28;20206;-61
2023/06/15 06:01:55;;;;;;;5.10;4.60;;;;;;;;;;5116845;28;20203;-61
2023/06/15 06:04:24;;;;;;;4.85;4.45;;;;;;;;;;5117056;28;20210;-61
2023/06/15 06:06:51;;;;;;;4.55;4.15;;;;;;;;;;5117314;28;20211;-61
2023/06/15 06:09:19;;;;;;;4.70;4.30;;;;;;;;;;5117109;28;20606;-61
2023/06/15 06:11:47;;;;;;;4.47;4.18;;;;;;;;;;5116418;28;20240;-61
2023/06/15 06:14:14;;;;;;;4.10;3.78;;;;;;;;;;5117051;28;20268;-61
2023/06/15 06:16:42;;;;;;;3.95;3.60;;;;;;;;;;5116784;28;20194;-61
2023/06/15 06:19:09;;;;;;;4.00;3.70;;;;;;;;;;5116637;28;20194;-61
2023/06/15 06:21:38;;;;;;;3.95;3.72;;;;;;;;;;5116441;28;20207;-60
2023/06/15 06:24:07;;;;;;;3.95;3.60;;;;;;;;;;5117271;28;20622;-61
2023/06/15 06:26:35;;;;;;;4.43;4.03;;;;;;;;;;5117183;28;20203;-61
2023/06/15 06:29:03;;;;;;;3.83;3.53;;;;;;;;;;5117159;28;20364;-61
2023/06/15 06:31:30;;;;;;;3.90;3.60;;;;;;;;;;5117823;28;20283;-61
2023/06/15 06:33:58;;;;;;;4.10;3.80;;;;;;;;;;5116799;28;20209;-61
2023/06/15 06:36:25;;;;;;;4.40;4.00;;;;;;;;;;5116806;28;20206;-61
2023/06/15 06:38:54;;;;;;;3.80;3.58;;;;;;;;;;5116762;28;20233;-60
2023/06/15 06:41:21;;;;;;;4.15;3.78;;;;;;;;;;5116832;28;20195;-61
2023/06/15 06:43:49;;;;;;;4.35;4.05;;;;;;;;;;5116326;28;20214;-61
2023/06/15 06:46:17;;;;;;;4.63;4.25;;;;;;;;;;5116446;28;20252;-61
2023/06/15 06:48:44;;;;;;;4.35;3.95;;;;;;;;;;5116621;28;20233;-61
2023/06/15 06:51:11;;;;;;;5.75;3.92;;;;;;;;;;5115696;28;20575;-61
2023/06/15 06:53:39;;;;;;;4.18;3.88;;;;;;;;;;5116699;28;20214;-61
2023/06/15 06:56:07;;;;;;;4.38;3.90;;;;;;;;;;5116753;28;20293;-61
2023/06/15 06:58:35;;;;;;;4.05;3.75;;;;;;;;;;5116303;28;20230;-61
2023/06/15 07:01:02;;;;;;;4.80;4.40;;;;;;;;;;5115926;28;20203;-61
2023/06/15 07:03:30;;;;;;;5.38;4.70;;;;;;;;;;5115368;28;20280;-61
2023/06/15 07:05:58;;;;;;;4.65;4.35;;;;;;;;;;5115650;28;20293;-61
2023/06/15 07:08:25;;;;;;;4.68;4.28;;;;;;;;;;5116256;28;20207;-61
2023/06/15 07:10:53;;;;;;;4.68;4.22;;;;;;;;;;5117229;28;20202;-61
2023/06/15 07:13:21;;;;;;;4.80;4.40;;;;;;;;;;5116583;28;20696;-61
2023/06/15 07:15:54;;;;;;;4.50;4.10;;;;;;;;;;5115904;28;20198;-61
2023/06/15 07:18:21;;;;;;;4.80;4.40;;;;;;;;;;5115564;28;20258;-61
2023/06/15 07:20:53;;;;;;;4.72;4.43;;;;;;;;;;5116372;28;20203;-61
2023/06/15 07:23:20;;;;;;;5.40;4.90;;;;;;;;;;5115656;28;20301;-61
2023/06/15 07:25:48;;;;;;;5.05;4.65;;;;;;;;;;5115596;28;20305;-61
2023/06/15 07:28:16;;;;;;;4.53;4.13;;;;;;;;;;5116049;28;20195;-61
2023/06/15 07:30:46;;;;;;;4.70;4.30;;;;;;;;;;5114946;28;20198;-61
2023/06/15 07:33:13;;;;;;;4.82;4.40;;;;;;;;;;5115900;28;20199;-61
2023/06/15 07:35:40;;;;;;;5.43;5.00;;;;;;;;;;5114772;28;20302;-61
2023/06/15 07:38:08;;;;;;;5.10;4.70;;;;;;;;;;5115487;28;20230;-61
2023/06/15 07:40:36;;;;;;;5.07;4.68;;;;;;;;;;5115559;28;20605;-61
2023/06/15 07:43:03;;;;;;;4.93;4.50;;;;;;;;;;5115159;28;20583;-61
2023/06/15 07:45:30;;;;;;;4.75;4.45;;;;;;;;;;5114583;28;20199;-61
2023/06/15 07:47:59;;;;;;;5.10;4.60;;;;;;;;;;5115725;28;20210;-61
2023/06/15 07:50:28;;;;;;;5.13;4.72;;;;;;;;;;5115193;28;20206;-61
2023/06/15 07:52:56;;;;;;;4.63;4.32;;;;;;;;;;5115821;28;20741;-61
2023/06/15 07:55:23;;;;;;;5.20;4.55;;;;;;;;;;5115463;28;20214;-61
2023/06/15 07:57:51;;;;;;;4.72;4.32;;;;;;;;;;5115650;28;20237;-61
2023/06/15 08:00:19;;;;;;;5.30;4.80;;;;;;;;;;5115890;28;20230;-61
2023/06/15 08:02:46;;;;;;;4.63;4.22;;;;;;;;;;5114936;28;20203;-61
2023/06/15 08:05:16;;;;;;;5.03;4.50;;;;;;;;;;5115132;28;20263;-61
2023/06/15 08:07:43;;;;;;;4.47;4.13;;;;;;;;;;5115807;28;20207;-61
2023/06/15 08:10:11;;;;;;;4.75;4.38;;;;;;;;;;5115503;28;20250;-61
2023/06/15 08:12:38;;;;;;;5.10;4.30;;;;;;;;;;5115341;28;20253;-61
2023/06/15 08:15:06;;;;;;;4.63;4.32;;;;;;;;;;5115018;28;20203;-61
2023/06/15 08:17:34;;;;;;;4.60;4.20;;;;;;;;;;5114821;28;20195;-60
2023/06/15 08:20:05;;;;;;;4.80;4.40;;;;;;;;;;5115091;28;20495;-60
2023/06/15 08:22:33;;;;;;;4.30;4.00;;;;;;;;;;5115725;28;20203;-60
2023/06/15 08:25:01;;;;;;;4.20;3.90;;;;;;;;;;5115332;28;20202;-61
2023/06/15 08:27:28;;;;;;;4.20;3.90;;;;;;;;;;5116042;28;20628;-61
2023/06/15 08:29:57;;;;;;;4.45;4.05;;;;;;;;;;5115813;28;20209;-61
2023/06/15 08:32:24;;;;;;;5.80;4.40;;;;;;;;;;5115813;28;20203;-61
2023/06/15 08:34:52;;;;;;;4.05;3.75;;;;;;;;;;5115777;28;20194;-61
2023/06/15 08:37:19;;;;;;;4.45;4.05;;;;;;;;;;5118489;28;20210;-61
2023/06/15 08:39:48;;;;;;;4.10;3.80;;;;;;;;;;5118969;28;20234;-61
2023/06/15 08:42:18;;;;;;;4.13;3.72;;;;;;;;;;5119332;28;20640;-61
2023/06/15 08:44:48;;;;;;;3.92;3.63;;;;;;;;;;5119251;28;20298;-61
2023/06/15 08:47:15;;;;;;;4.57;3.60;;;;;;;;;;5119168;28;20242;-60
2023/06/15 08:49:43;;;;;;;4.03;3.67;;;;;;;;;;5118374;28;20199;-60
2023/06/15 08:52:11;;;;;;;4.05;3.67;;;;;;;;;;5119671;28;20217;-61
2023/06/15 08:54:41;;;;;;;3.95;3.53;;;;;;;;;;5118382;28;20260;-62
2023/06/15 08:57:10;;;;;;;4.28;3.97;;;;;;;;;;5118134;28;20301;-61
2023/06/15 08:59:38;;;;;;;4.07;3.78;;;;;;;;;;5118827;28;20230;-61
2023/06/15 09:02:07;;;;;;;4.00;3.72;;;;;;;;;;5118434;28;20213;-61
2023/06/15 09:04:35;;;;;;;4.47;4.07;;;;;;;;;;5118511;28;20199;-61
2023/06/15 09:07:02;;;;;;;3.85;3.50;;;;;;;;;;5119166;28;20582;-61
2023/06/15 09:09:29;;;;;;;3.95;3.70;;;;;;;;;;5118644;28;20199;-61
2023/06/15 09:11:57;;;;;;;4.15;3.75;;;;;;;;;;5118879;28;20202;-61
2023/06/15 09:14:26;;;;;;;4.30;4.00;;;;;;;;;;5118311;28;20210;-61
2023/06/15 09:16:53;;;;;;;4.53;4.13;;;;;;;;;;5118398;28;20493;-61
2023/06/15 09:19:21;;;;;;;4.45;4.05;;;;;;;;;;5117955;28;20237;-61
2023/06/15 09:21:51;;;;;;;4.22;3.92;;;;;;;;;;5117426;28;20629;-61
2023/06/15 09:24:19;;;;;;;4.32;3.85;;;;;;;;;;5117809;28;20213;-61
2023/06/15 09:26:47;;;;;;;4.68;4.28;;;;;;;;;;5117715;28;20266;-62
2023/06/15 09:29:14;;;;;;;4.00;3.60;;;;;;;;;;5118515;28;20461;-61
2023/06/15 09:31:43;;;;;;;3.90;3.63;;;;;;;;;;5118343;28;20211;-63
2023/06/15 09:34:11;;;;;;;4.55;3.85;;;;;;;;;;5118131;28;20213;-62
2023/06/15 09:36:41;;;;;;;4.30;3.90;;;;;;;;;;5118164;28;20203;-61
2023/06/15 09:39:10;;;;;;;4.30;3.90;;;;;;;;;;5117472;28;20234;-61
2023/06/15 09:41:38;;;;;;;4.50;4.10;;;;;;;;;;5117686;28;20218;-61
2023/06/15 09:44:09;;;;;;;4.65;4.25;;;;;;;;;;5117997;28;20296;-61
2023/06/15 09:46:38;;;;;;;4.90;4.50;;;;;;;;;;5116813;28;20234;-61
2023/06/15 09:49:21;;;;;;;5.10;4.60;;;;;;;;;;5117023;28;20198;-61
2023/06/15 09:51:50;;;;;;;4.60;4.22;;;;;;;;;;5117030;28;20275;-61
2023/06/15 09:54:20;;;;;;;4.60;4.20;;;;;;;;;;5117095;28;20470;-61
2023/06/15 09:56:49;;;;;;;4.40;3.92;;;;;;;;;;5116884;28;20199;-61
2023/06/15 09:59:17;;;;;;;4.82;4.20;;;;;;;;;;5116980;28;20219;-61
2023/06/15 10:01:46;;;;;;;4.57;4.18;;;;;;;;;;5117622;28;20472;-61
2023/06/15 10:04:16;;;;;;;4.50;4.10;;;;;;;;;;5117462;28;20214;-62
2023/06/15 10:06:45;;;;;;;4.70;4.30;;;;;;;;;;5117377;28;20195;-61
2023/06/15 10:09:14;;;;;;;4.30;4.00;;;;;;;;;;5116812;28;20297;-61
2023/06/15 10:11:43;;;;;;;4.25;3.80;;;;;;;;;;5117003;28;20198;-62
2023/06/15 10:14:11;;;;;;;4.65;4.25;;;;;;;;;;5116509;28;20195;-61
2023/06/15 10:16:40;;;;;;;4.10;3.75;;;;;;;;;;5116567;28;20203;-61
2023/06/15 10:19:11;;;;;;;4.40;4.00;;;;;;;;;;5115995;28;20254;-61
2023/06/15 10:21:41;;;;;;;4.78;4.15;;;;;;;;;;5116140;28;20213;-61
2023/06/15 10:24:12;;;;;;;4.55;4.20;;;;;;;;;;5116108;28;20206;-61
2023/06/15 10:26:40;;;;;;;4.88;4.40;;;;;;;;;;5115799;28;20203;-61
2023/06/15 10:29:12;;;;;;;4.53;4.20;;;;;;;;;;5115502;28;20779;-61
2023/06/15 10:31:43;;;;;;;5.35;4.85;;;;;;;;;;5115352;28;20194;-61
2023/06/15 10:34:11;;;;;;;4.97;4.47;;;;;;;;;;5115457;28;20302;-62
2023/06/15 10:36:46;;;;;;;5.22;4.82;;;;;;;;;;5114425;28;20202;-61
2023/06/15 10:39:17;;;;;;;5.15;4.70;;;;;;;;;;5115213;28;20226;-61
2023/06/15 10:41:45;;;;;;;4.80;4.40;;;;;;;;;;5115895;28;20834;-61
2023/06/15 10:44:16;;;;;;;4.72;4.43;;;;;;;;;;5114973;28;20199;-62
2023/06/15 10:46:43;;;;;;;4.55;4.25;;;;;;;;;;5115606;28;20327;-61
2023/06/15 10:49:12;;;;;;;4.80;4.43;;;;;;;;;;5114915;28;20199;-61
2023/06/15 10:51:42;;;;;;;5.55;5.05;;;;;;;;;;5115423;28;20225;-61
2023/06/15 10:54:23;;;;;;;4.55;4.25;;;;;;;;;;5114032;28;20203;-61
2023/06/15 10:56:53;;;;;;;5.60;4.40;;;;;;;;;;5115170;28;20209;-61
2023/06/15 10:59:42;;;;;;;4.95;4.20;;;;;;;;;;5113969;28;20223;-61
2023/06/15 11:02:24;;;;;;;5.18;4.55;;;;;;;;;;5115434;28;20218;-61
2023/06/15 11:04:52;;;;;;;4.90;4.50;;;;;;;;;;5098261;28;20202;-62
2023/06/15 11:07:30;;;;;;;5.50;4.35;;;;;;;;;;5115220;28;20207;-61
2023/06/15 11:09:57;;;;;;;4.75;4.40;;;;;;;;;;5114532;28;20611;-62
2023/06/15 11:12:34;;;;;;;4.68;4.28;;;;;;;;;;5114434;28;20226;-62
2023/06/15 11:15:02;;;;;;;4.53;4.00;;;;;;;;;;5114211;28;20199;-61
2023/06/15 11:17:30;;;;;;;4.65;4.25;;;;;;;;;;5114259;28;20307;-61
2023/06/15 11:19:57;;;;;;;4.82;4.47;;;;;;;;;;5114031;28;20226;-61
2023/06/15 11:22:26;;;;;;;4.78;4.25;;;;;;;;;;5114137;28;20867;-62
2023/06/15 11:24:57;;;;;;;5.32;4.88;;;;;;;;;;5114890;28;20264;-61
2023/06/15 11:27:25;;;;;;;5.30;4.85;;;;;;;;;;5114423;28;20213;-61
2023/06/15 11:29:56;;;;;;;4.70;4.30;;;;;;;;;;5115089;28;20482;-61
2023/06/15 11:32:27;;;;;;;5.20;4.70;;;;;;;;;;5115244;28;20210;-62
2023/06/15 11:34:57;;;;;;;5.10;4.70;;;;;;;;;;5114512;28;20298;-61
2023/06/15 11:37:28;;;;;;;4.78;4.38;;;;;;;;;;5114494;28;20214;-62
2023/06/15 11:39:57;;;;;;;5.03;4.53;;;;;;;;;;5114339;28;20637;-61
2023/06/15 11:42:24;;;;;;;4.78;4.28;;;;;;;;;;5114552;28;20210;-61
2023/06/15 11:44:52;;;;;;;4.70;4.30;;;;;;;;;;5114804;28;20214;-61
2023/06/15 11:47:19;;;;;;;4.85;4.35;;;;;;;;;;5113862;28;20234;-61
2023/06/15 11:49:47;;;;;;;4.82;4.43;;;;;;;;;;5114178;28;20265;-61
2023/06/15 11:52:16;;;;;;;4.80;4.40;;;;;;;;;;5113482;28;20210;-61
2023/06/15 11:54:43;;;;;;;4.47;4.18;;;;;;;;;;5112897;28;20203;-61
2023/06/15 11:57:12;;;;;;;4.88;4.47;;;;;;;;;;5114426;28;20650;-61
2023/06/15 11:59:40;;;;;;;5.10;4.60;;;;;;;;;;5115459;28;20255;-61
2023/06/15 12:02:08;;;;;;;4.95;4.55;;;;;;;;;;5114599;28;20202;-61
2023/06/15 12:04:35;;;;;;;5.13;4.40;;;;;;;;;;5113708;28;20285;-61
2023/06/15 12:07:04;;;;;;;5.10;4.35;;;;;;;;;;5113559;28;20210;-61
2023/06/15 12:09:33;;;;;;;4.13;3.72;;;;;;;;;;5113471;28;20264;-60
2023/06/15 12:12:00;;;;;;;4.38;3.97;;;;;;;;;;5118520;28;20202;-60
2023/06/15 12:14:29;;;;;;;5.43;4.07;;;;;;;;;;5117994;28;20275;-60
2023/06/15 12:16:57;;;;;;;4.90;4.18;;;;;;;;;;5117478;28;20491;-60
2023/06/15 12:19:24;;;;;;;5.05;4.28;;;;;;;;;;5118700;28;20545;-61
2023/06/15 12:21:52;;;;;;;4.43;4.10;;;;;;;;;;5117916;28;20560;-61
2023/06/15 12:24:20;;;;;;;4.38;3.97;;;;;;;;;;5117586;28;20555;-61
2023/06/15 12:26:52;;;;;;;4.38;3.97;;;;;;;;;;5117500;28;20199;-61
2023/06/15 12:29:21;;;;;;;4.55;4.15;;;;;;;;;;5117669;28;20226;-61
2023/06/15 12:31:50;;;;;;;3.80;3.50;;;;;;;;;;5117477;28;20469;-61
2023/06/15 12:34:22;;;;;;;3.78;3.47;;;;;;;;;;5117789;28;20297;-62
2023/06/15 12:36:50;;;;;;;4.63;4.10;;;;;;;;;;5117712;28;20245;-61
2023/06/15 12:39:18;;;;;;;6.03;4.05;;;;;;;;;;5117792;28;20222;-61
2023/06/15 12:41:45;;;;;;;4.50;4.10;;;;;;;;;;5118604;28;20211;-61
2023/06/15 12:44:13;;;;;;;5.47;4.28;;;;;;;;;;5117516;28;20232;-61
2023/06/15 12:46:41;;;;;;;4.22;3.83;;;;;;;;;;5116975;28;20241;-61
2023/06/15 12:49:11;;;;;;;4.15;3.85;;;;;;;;;;5117399;28;20206;-61
2023/06/15 12:51:39;;;;;;;6.53;4.10;;;;;;;;;;5117305;28;20278;-61
2023/06/15 12:54:07;;;;;;;4.40;4.00;;;;;;;;;;5117965;28;20203;-62
2023/06/15 12:56:35;;;;;;;4.88;4.03;;;;;;;;;;5117340;28;20207;-61
2023/06/15 12:59:03;;;;;;;5.15;4.20;;;;;;;;;;5117471;28;20260;-60
2023/06/15 13:01:31;;;;;;;4.07;3.78;;;;;;;;;;5117751;28;20207;-61
2023/06/15 13:03:58;;;;;;;5.35;3.63;;;;;;;;;;5116679;28;20529;-61
2023/06/15 13:06:27;;;;;;;3.95;3.55;;;;;;;;;;5117495;28;20211;-60
2023/06/15 13:08:54;;;;;;;3.90;3.60;;;;;;;;;;5117472;28;20640;-62
2023/06/15 13:11:22;;;;;;;4.13;3.72;;;;;;;;;;5116760;28;20209;-61
2023/06/15 13:13:49;;;;;;;5.07;3.90;;;;;;;;;;5116815;28;20203;-60
2023/06/15 13:16:16;;;;;;;4.00;3.63;;;;;;;;;;5115503;28;20195;-60
2023/06/15 13:18:44;;;;;;;4.70;3.78;;;;;;;;;;5116847;28;20203;-61
2023/06/15 13:21:12;;;;;;;5.95;3.88;;;;;;;;;;5116602;28;20333;-63
2023/06/15 13:23:41;;;;;;;4.07;3.70;;;;;;;;;;5115483;28;20296;-61
2023/06/15 13:26:08;;;;;;;4.35;3.55;;;;;;;;;;5115509;28;20237;-62
2023/06/15 13:28:35;;;;;;;4.00;3.60;;;;;;;;;;5117176;28;20195;-62
2023/06/15 13:31:04;;;;;;;4.43;3.65;;;;;;;;;;5116678;28;20202;-61
2023/06/15 13:33:33;;;;;;;4.22;3.53;;;;;;;;;;5116174;28;20597;-61
2023/06/15 13:36:00;;;;;;;6.45;3.70;;;;;;;;;;5116533;28;20731;-61
2023/06/15 13:38:27;;;;;;;6.68;3.80;;;;;;;;;;5114855;28;20203;-61
2023/06/15 13:40:56;;;;;;;5.00;3.88;;;;;;;;;;5115959;28;20225;-60
2023/06/15 13:43:24;;;;;;;5.32;3.60;;;;;;;;;;5116016;28;20210;-62
2023/06/15 13:45:52;;;;;;;3.85;3.50;;;;;;;;;;5115972;28;20235;-61
2023/06/15 13:48:19;;;;;;;3.55;3.25;;;;;;;;;;5116372;28;20211;-60
2023/06/15 13:50:46;;;;;;;4.65;3.80;;;;;;;;;;5116119;28;20195;-60
2023/06/15 13:53:14;;;;;;;4.00;3.47;;;;;;;;;;5116663;28;20195;-62
2023/06/15 13:55:42;;;;;;;3.50;3.20;;;;;;;;;;5116015;28;20195;-61
2023/06/15 13:58:11;;;;;;;3.60;3.30;;;;;;;;;;5115926;28;20264;-61
2023/06/15 14:00:39;;;;;;;3.95;3.50;;;;;;;;;;5114761;28;20222;-61
2023/06/15 14:03:07;;;;;;;3.78;3.47;;;;;;;;;;5114952;28;20296;-61
2023/06/15 14:05:34;;;;;;;4.10;3.70;;;;;;;;;;5114544;28;20203;-61
2023/06/15 14:08:01;;;;;;;4.55;3.65;;;;;;;;;;5115646;28;20203;-62
2023/06/15 14:10:29;;;;;;;4.18;3.67;;;;;;;;;;5115615;28;20540;-62
2023/06/15 14:12:57;;;;;;;6.18;3.50;;;;;;;;;;5115826;28;20250;-62
2023/06/15 14:15:26;;;;;;;4.40;3.90;;;;;;;;;;5116089;28;20195;-62
2023/06/15 14:17:54;;;;;;;4.25;3.30;;;;;;;;;;5114947;28;20195;-61
2023/06/15 14:20:21;;;;;;;3.75;3.33;;;;;;;;;;5114618;28;20242;-61
2023/06/15 14:22:48;;;;;;;4.63;3.63;;;;;;;;;;5115687;28;20203;-62
2023/06/15 14:25:17;;;;;;;4.38;3.63;;;;;;;;;;5116492;28;20230;-61
2023/06/15 14:27:45;;;;;;;3.95;3.55;;;;;;;;;;5115511;28;20223;-62
2023/06/15 14:30:13;;;;;;;3.50;3.20;;;;;;;;;;5115241;28;20232;-62
2023/06/15 14:32:42;;;;;;;3.70;3.33;;;;;;;;;;5115139;28;20214;-61
2023/06/15 14:35:09;;;;;;;4.57;3.65;;;;;;;;;;5115496;28;20203;-61
2023/06/15 14:37:36;;;;;;;4.70;3.50;;;;;;;;;;5115451;28;20582;-61
2023/06/15 14:40:04;;;;;;;4.65;3.78;;;;;;;;;;5114778;28;20219;-61
2023/06/15 14:42:33;;;;;;;3.60;3.30;;;;;;;;;;5114022;28;20195;-62
2023/06/15 14:45:00;;;;;;;4.15;3.58;;;;;;;;;;5114469;28;20214;-63
2023/06/15 14:47:27;;;;;;;6.22;3.67;;;;;;;;;;5114161;28;20256;-62
2023/06/15 14:49:57;;;;;;;4.13;3.80;;;;;;;;;;5113975;28;20206;-61